createdAt,value
2019-02-16T00:00:04.396Z,6.70
2019-02-16T00:05:07.502Z,6.53
2019-02-16T00:10:10.806Z,6.23
2019-02-16T00:15:14.483Z,7.03
2019-02-16T00:20:17.897Z,6.53
2019-02-16T00:25:21.529Z,6.73
2019-02-16T00:30:24.916Z,6.23
2019-02-16T00:35:27.995Z,6.97
2019-02-16T00:40:31.283Z,6.40
2019-02-16T00:45:34.354Z,6.40
2019-02-16T00:50:38.063Z,6.63
2019-02-16T00:55:41.822Z,6.20
2019-02-16T01:00:45.221Z,6.27
2019-02-16T01:05:48.615Z,5.90
2019-02-16T01:10:52.350Z,7.40
2019-02-16T01:15:56.059Z,7.53
2019-02-16T01:20:59.130Z,6.97
2019-02-16T01:26:02.491Z,7.37
2019-02-16T01:31:05.887Z,6.80
2019-02-16T01:36:09.628Z,6.77
2019-02-16T01:41:13.342Z,6.77
2019-02-16T01:46:17.059Z,8.40
2019-02-16T01:51:20.127Z,9.33
2019-02-16T01:56:23.528Z,8.20
2019-02-16T02:01:27.202Z,7.00
2019-02-16T02:06:30.927Z,7.70
2019-02-16T02:11:34.651Z,7.53
2019-02-16T02:16:37.972Z,7.40
2019-02-16T02:21:41.632Z,7.40
2019-02-16T02:26:45.082Z,6.93
2019-02-16T02:31:48.839Z,7.13
2019-02-16T02:36:51.909Z,6.80
2019-02-16T02:41:55.562Z,7.37
2019-02-16T02:46:58.630Z,7.23
2019-02-16T02:52:01.731Z,7.67
2019-02-16T02:57:05.374Z,8.33
2019-02-16T03:02:08.735Z,7.30
2019-02-16T03:07:12.123Z,7.73
2019-02-16T03:12:15.831Z,7.73
2019-02-16T03:17:19.551Z,7.70
2019-02-16T03:22:22.972Z,7.15
2019-02-16T03:27:49.325Z,7.67
2019-02-16T03:32:55.792Z,7.90
2019-02-16T03:38:21.239Z,8.50
2019-02-16T03:43:24.963Z,7.97
2019-02-16T03:48:28.030Z,7.83
2019-02-16T03:53:31.391Z,7.87
2019-02-16T03:58:35.103Z,7.73
2019-02-16T04:03:38.427Z,8.97
2019-02-16T04:08:41.740Z,8.33
2019-02-16T04:13:45.126Z,8.20
2019-02-16T04:18:48.575Z,8.07
2019-02-16T04:23:51.893Z,8.17
2019-02-16T04:28:55.300Z,7.93
2019-02-16T04:33:58.710Z,7.77
2019-02-16T04:39:02.110Z,7.90
2019-02-16T04:44:05.851Z,7.73
2019-02-16T04:49:09.271Z,8.63
2019-02-16T04:54:12.658Z,9.27
2019-02-16T04:59:16.407Z,8.67
2019-02-16T05:04:19.802Z,8.83
2019-02-16T05:09:23.530Z,9.50
2019-02-16T05:14:26.952Z,8.97
2019-02-16T05:19:30.353Z,9.27
2019-02-16T05:24:33.762Z,8.87
2019-02-16T05:29:37.491Z,8.97
2019-02-16T05:34:40.556Z,8.77
2019-02-16T05:39:43.921Z,9.40
2019-02-16T05:44:47.632Z,9.30
2019-02-16T05:49:51.027Z,8.90
2019-02-16T05:54:54.396Z,9.33
2019-02-16T05:59:57.780Z,9.23
2019-02-16T06:05:01.103Z,9.43
2019-02-16T06:10:06.348Z,10.00
2019-02-16T06:15:09.989Z,9.87
2019-02-16T06:20:13.069Z,10.50
2019-02-16T06:25:16.150Z,10.20
2019-02-16T06:30:19.510Z,10.03
2019-02-16T06:35:27.041Z,9.57
2019-02-16T06:40:30.440Z,10.10
2019-02-16T06:45:33.914Z,9.63
2019-02-16T06:50:37.405Z,9.70
2019-02-16T06:55:45.378Z,9.57
2019-02-16T07:00:48.696Z,9.87
2019-02-16T07:05:52.092Z,10.77
2019-02-16T07:10:55.163Z,10.97
2019-02-16T07:16:16.865Z,10.63
2019-02-16T07:21:20.584Z,10.27
2019-02-16T07:26:24.704Z,10.80
2019-02-16T07:31:27.827Z,10.10
2019-02-16T07:36:30.898Z,10.07
2019-02-16T07:41:34.667Z,10.77
2019-02-16T07:46:39.713Z,10.00
2019-02-16T07:51:47.667Z,9.67
2019-02-16T07:56:58.498Z,8.90
2019-02-16T08:02:06.338Z,7.90
2019-02-16T08:07:14.075Z,7.93
2019-02-16T08:12:33.997Z,7.67
2019-02-16T08:17:42.156Z,7.37
2019-02-16T08:22:50.118Z,7.30
2019-02-16T08:27:55.452Z,8.10
2019-02-16T08:33:12.430Z,7.77
2019-02-16T08:38:17.531Z,7.53
2019-02-16T08:43:22.822Z,7.80
2019-02-16T08:48:46.241Z,7.53
2019-02-16T08:54:10.174Z,7.30
2019-02-16T08:59:21.275Z,7.80
2019-02-16T09:04:26.223Z,8.30
2019-02-16T09:09:37.138Z,7.30
2019-02-16T09:14:42.183Z,8.00
2019-02-16T09:19:59.820Z,8.60
2019-02-16T09:25:04.810Z,8.80
2019-02-16T09:30:18.522Z,8.80
2019-02-16T09:35:23.575Z,8.77
2019-02-16T09:40:31.430Z,8.10
2019-02-16T09:45:36.123Z,7.67
2019-02-16T09:50:57.174Z,7.70
2019-02-16T09:56:04.881Z,8.20
2019-02-16T10:01:25.010Z,7.70
2019-02-16T10:06:30.050Z,8.40
2019-02-16T10:11:35.086Z,7.60
2019-02-16T10:16:48.886Z,8.40
2019-02-16T10:21:53.943Z,8.13
2019-02-16T10:27:05.015Z,8.80
2019-02-16T10:32:10.365Z,8.10
2019-02-16T10:37:18.303Z,7.93
2019-02-16T10:42:23.391Z,7.60
2019-02-16T10:47:36.854Z,8.23
2019-02-16T10:52:41.860Z,7.87
2019-02-16T10:57:49.496Z,8.00
2019-02-16T11:02:54.866Z,8.17
2019-02-16T11:08:06.215Z,8.17
2019-02-16T11:13:17.395Z,7.93
2019-02-16T11:18:25.343Z,7.77
2019-02-16T11:23:33.091Z,7.30
2019-02-16T11:28:41.379Z,7.80
2019-02-16T11:34:01.395Z,7.57
2019-02-16T11:39:08.028Z,7.30
2019-02-16T11:44:18.780Z,7.10
2019-02-16T11:49:29.564Z,7.20
2019-02-16T11:54:45.474Z,7.37
2019-02-16T11:59:44.492Z,7.50
2019-02-16T12:04:52.484Z,6.90
2019-02-16T12:09:57.864Z,6.97
2019-02-16T12:15:02.817Z,7.17
2019-02-16T12:20:12.882Z,7.97
2019-02-16T12:25:34.102Z,7.73
2019-02-16T12:30:51.156Z,7.60
2019-02-16T12:35:59.110Z,7.57
2019-02-16T12:41:09.570Z,7.47
2019-02-16T12:46:14.631Z,7.70
2019-02-16T12:51:19.351Z,7.10
2019-02-16T12:56:32.814Z,6.53
2019-02-16T13:01:38.168Z,7.20
2019-02-16T13:06:49.058Z,6.97
2019-02-16T13:12:03.321Z,7.47
2019-02-16T13:17:26.916Z,6.17
2019-02-16T13:22:37.687Z,7.80
2019-02-16T13:27:42.739Z,7.57
2019-02-16T13:32:53.919Z,7.10
2019-02-16T13:37:58.641Z,7.77
2019-02-16T13:43:19.836Z,7.73
2019-02-16T13:48:24.882Z,7.83
2019-02-16T13:53:41.742Z,7.67
2019-02-16T13:58:46.554Z,7.67
2019-02-16T14:03:51.901Z,7.20
2019-02-16T14:08:56.618Z,7.57
2019-02-16T14:14:04.371Z,7.57
2019-02-16T14:19:08.086Z,7.90
2019-02-16T14:24:11.409Z,7.70
2019-02-16T14:29:14.488Z,6.90
2019-02-16T14:34:17.891Z,7.77
2019-02-16T14:39:23.181Z,6.83
2019-02-16T14:44:26.622Z,7.50
2019-02-16T14:49:30.322Z,7.63
2019-02-16T14:54:33.967Z,7.77
2019-02-16T14:59:37.659Z,7.10
2019-02-16T15:04:40.760Z,7.40
2019-02-16T15:09:43.835Z,7.57
2019-02-16T15:14:47.169Z,6.97
2019-02-16T15:19:50.566Z,7.03
2019-02-16T15:24:53.871Z,7.53
2019-02-16T15:29:56.956Z,7.80
2019-02-16T15:35:00.862Z,7.50
2019-02-16T15:40:05.309Z,7.27
2019-02-16T15:45:10.081Z,8.53
2019-02-16T15:50:14.941Z,8.30
2019-02-16T15:55:18.013Z,8.33
2019-02-16T16:00:23.016Z,8.23
2019-02-16T16:05:26.372Z,8.17
2019-02-16T16:10:31.431Z,7.93
2019-02-16T16:15:42.293Z,8.43
2019-02-16T16:20:49.480Z,8.10
2019-02-16T16:25:54.202Z,7.70
2019-02-16T16:30:59.507Z,7.43
2019-02-16T16:36:07.373Z,7.20
2019-02-16T16:41:12.411Z,7.07
2019-02-16T16:46:35.530Z,7.13
2019-02-16T16:51:40.577Z,6.43
2019-02-16T16:56:45.664Z,8.20
2019-02-16T17:01:54.116Z,7.23
2019-02-16T17:07:07.812Z,7.57
2019-02-16T17:12:34.735Z,9.80
2019-02-16T17:17:39.944Z,12.50
2019-02-16T17:22:47.711Z,16.50
2019-02-16T17:27:58.978Z,10.37
2019-02-16T17:33:04.361Z,8.60
2019-02-16T17:38:12.145Z,7.50
2019-02-16T17:43:22.970Z,7.67
2019-02-16T17:48:37.235Z,9.33
2019-02-16T17:53:54.672Z,7.90
2019-02-16T17:59:02.655Z,8.03
2019-02-16T18:04:17.603Z,6.60
2019-02-16T18:09:22.726Z,6.97
2019-02-16T18:14:30.355Z,7.47
2019-02-16T18:19:37.010Z,7.20
2019-02-16T18:24:50.808Z,7.27
2019-02-16T18:30:04.631Z,8.03
2019-02-16T18:35:24.965Z,9.97
2019-02-16T18:40:42.733Z,10.83
2019-02-16T18:45:50.118Z,9.90
2019-02-16T18:50:58.454Z,10.23
2019-02-16T18:56:19.487Z,8.47
2019-02-16T19:01:39.951Z,8.60
2019-02-16T19:07:01.673Z,9.80
2019-02-16T19:12:07.178Z,9.27
2019-02-16T19:17:12.599Z,9.75
2019-02-16T19:22:17.695Z,13.30
2019-02-16T19:27:28.716Z,14.43
2019-02-16T19:32:45.680Z,15.53
2019-02-16T19:38:07.103Z,17.53
2019-02-16T19:43:12.153Z,15.33
2019-02-16T19:48:16.945Z,13.40
2019-02-16T19:53:28.278Z,13.43
2019-02-16T19:58:49.519Z,12.60
2019-02-16T20:04:11.058Z,13.27
2019-02-16T20:09:16.470Z,14.07
2019-02-16T20:14:27.534Z,14.77
2019-02-16T20:19:38.557Z,14.40
2019-02-16T20:24:58.520Z,14.13
2019-02-16T20:30:03.566Z,13.00
2019-02-16T20:35:08.935Z,12.90
2019-02-16T20:40:30.921Z,13.00
2019-02-16T20:45:40.932Z,12.93
2019-02-16T20:50:52.059Z,14.03
2019-02-16T20:56:06.308Z,12.63
2019-02-16T21:01:11.671Z,12.90
2019-02-16T21:06:32.743Z,13.30
2019-02-16T21:11:38.054Z,13.33
2019-02-16T21:16:59.394Z,12.98
2019-02-16T21:22:10.191Z,12.57
2019-02-16T21:27:24.447Z,12.00
2019-02-16T21:32:46.022Z,12.80
2019-02-16T21:37:57.047Z,12.80
2019-02-16T21:43:02.098Z,12.80
2019-02-16T21:48:12.939Z,13.37
2019-02-16T21:53:21.436Z,13.60
2019-02-16T21:58:30.621Z,13.97
2019-02-16T22:03:41.807Z,14.47
2019-02-16T22:08:47.173Z,13.37
2019-02-16T22:13:50.906Z,13.60
2019-02-16T22:18:54.554Z,12.77
2019-02-16T22:23:57.635Z,13.60
2019-02-16T22:29:01.370Z,14.23
2019-02-16T22:34:04.766Z,13.10
2019-02-16T22:39:08.242Z,13.03
2019-02-16T22:44:11.884Z,12.80
2019-02-16T22:49:15.292Z,13.83
2019-02-16T22:54:18.698Z,13.53
2019-02-16T22:59:21.773Z,13.10
2019-02-16T23:04:24.862Z,13.30
2019-02-16T23:09:28.415Z,13.33
2019-02-16T23:14:31.787Z,13.73
2019-02-16T23:19:34.858Z,14.83
2019-02-16T23:24:37.944Z,13.90
2019-02-16T23:29:41.031Z,13.97
2019-02-16T23:34:44.334Z,13.43
2019-02-16T23:39:48.019Z,14.07
2019-02-16T23:44:51.426Z,13.53
2019-02-16T23:49:54.760Z,13.70
2019-02-16T23:54:58.493Z,13.53
